Penetanguishene, Canada
Current Conditions -  °F | °C
As of 9:00 PM on Wednesday 22 Oct 2014 (Local Time) from CYQA Reporting Station
Clear Clear  
Wind Chill:   Ceiling: Unl
Heat Index:   Visibility: 9mi
Dew Point:   Wind: 2mph
Humidity: 81%   Direction: NA
Pressure: 30.26"   Gusts: NA
Location:  44.77°N, 79.93°W
Report Text: CYQA 230100Z AUTO VRB02KT 9SM CLR 07/04 A3026 RMK SLP256
Loading
Personal Weather Stations






























Interactive Weather Map
Tropical Storm Tracking
New forecast layout! Learn more

10-Day Weather Forecast

Advertisements
Track Severe Weather on mobile